Delta Virtual Airport Information Service

New York Newark Liberty International Airport

ICAO: KEWR Country: United States
Latitude: 40.6925 Longitude: -74.1686
Latest Arrival : UAL1425 (A) (KBOS-KEWR) Latest Departure : UAL1992 (1) (KEWR-KIAD)


WX CaptureLIVE
Data provided by noaa.gov | Fetched at 08:43:47

METAR : KEWR 041351Z 31012G19KT 10SM BKN048 BKN085 BKN250 06/M04 A2984 RMK AO2 SLP103 T00561044

TAF : KEWR 041130Z 0412/0518 29010KT P6SM SCT050 FM041400 31016G24KT P6SM SCT045 FM041800 31020G29KT P6SM SCT045 FM050400 30016G24KT P6SM SCT100 FM051200 29017G25KT P6SM FEW120


Runway Data for KEWR
Data provided by openaviationdata.com

Runway ID Mag Var Hdg Length Elevation Surface ILS Freq ILS Id ILS Slope
04L -13 38° 11003 ft 18 ft Asphalt 110.75 IEWR 3
04R -13 38° 9983 ft 18 ft Asphalt 108.7 IEZA 3
11 -13 108° 6790 ft 18 ft Asphalt 109.15 IGPR 3
22L -13 218° 9983 ft 18 ft Asphalt 108.7 ILSQ 3
22R -13 218° 11003 ft 18 ft Asphalt 110.75 IJNN 3
29 -13 288° 6790 ft 18 ft Asphalt -- -- --

New York Newark Liberty International Airport, United States
Use only for reference purposes



Not for navigational purposes.